sensor_id;sensor_type;location;lat;lon;timestamp;temperature;humidity
5962;DHT22;3007;50.770;0.250;2024-01-16T00:00:42;-1.90;99.90
5962;DHT22;3007;50.770;0.250;2024-01-16T00:03:09;-1.90;99.90
5962;DHT22;3007;50.770;0.250;2024-01-16T00:05:36;-1.90;99.90
5962;DHT22;3007;50.770;0.250;2024-01-16T00:08:03;-1.90;99.90
5962;DHT22;3007;50.770;0.250;2024-01-16T00:10:30;-1.90;99.90
5962;DHT22;3007;50.770;0.250;2024-01-16T00:12:58;-1.90;99.90
5962;DHT22;3007;50.770;0.250;2024-01-16T00:15:25;-1.90;99.90
5962;DHT22;3007;50.770;0.250;2024-01-16T00:17:52;-1.90;99.90
5962;DHT22;3007;50.770;0.250;2024-01-16T00:20:19;-1.90;99.90
5962;DHT22;3007;50.770;0.250;2024-01-16T00:22:47;-1.90;99.90
5962;DHT22;3007;50.770;0.250;2024-01-16T00:25:14;-1.90;99.90
5962;DHT22;3007;50.770;0.250;2024-01-16T00:27:43;-1.90;99.90
5962;DHT22;3007;50.770;0.250;2024-01-16T00:30:12;-1.90;99.90
5962;DHT22;3007;50.770;0.250;2024-01-16T00:32:39;-1.90;99.90
5962;DHT22;3007;50.770;0.250;2024-01-16T00:35:06;-1.90;99.90
5962;DHT22;3007;50.770;0.250;2024-01-16T00:37:35;-1.90;99.90
5962;DHT22;3007;50.770;0.250;2024-01-16T00:40:02;-2.00;99.90
5962;DHT22;3007;50.770;0.250;2024-01-16T00:42:31;-2.00;99.90
5962;DHT22;3007;50.770;0.250;2024-01-16T00:44:58;-1.90;99.90
5962;DHT22;3007;50.770;0.250;2024-01-16T00:47:27;-1.90;99.90
5962;DHT22;3007;50.770;0.250;2024-01-16T00:49:53;-1.90;99.90
5962;DHT22;3007;50.770;0.250;2024-01-16T00:52:20;-1.80;99.90
5962;DHT22;3007;50.770;0.250;2024-01-16T00:54:47;-1.80;99.90
5962;DHT22;3007;50.770;0.250;2024-01-16T00:57:16;-1.70;99.90
5962;DHT22;3007;50.770;0.250;2024-01-16T00:59:48;-1.70;99.90
5962;DHT22;3007;50.770;0.250;2024-01-16T01:02:15;-1.60;99.90
5962;DHT22;3007;50.770;0.250;2024-01-16T01:04:43;-1.60;99.90
5962;DHT22;3007;50.770;0.250;2024-01-16T01:07:13;-1.60;99.90
5962;DHT22;3007;50.770;0.250;2024-01-16T01:09:40;-1.60;99.90
5962;DHT22;3007;50.770;0.250;2024-01-16T01:12:07;-1.60;99.90
5962;DHT22;3007;50.770;0.250;2024-01-16T01:14:35;-1.60;99.90
5962;DHT22;3007;50.770;0.250;2024-01-16T01:17:02;-1.50;99.90
5962;DHT22;3007;50.770;0.250;2024-01-16T01:19:29;-1.50;99.90
5962;DHT22;3007;50.770;0.250;2024-01-16T01:21:57;-1.50;99.90
5962;DHT22;3007;50.770;0.250;2024-01-16T01:24:24;-1.60;99.90
5962;DHT22;3007;50.770;0.250;2024-01-16T01:26:51;-1.60;99.90
5962;DHT22;3007;50.770;0.250;2024-01-16T01:29:18;-1.50;99.90
5962;DHT22;3007;50.770;0.250;2024-01-16T01:31:46;-1.50;99.90
5962;DHT22;3007;50.770;0.250;2024-01-16T01:34:14;-1.50;99.90
5962;DHT22;3007;50.770;0.250;2024-01-16T01:36:41;-1.50;99.90
5962;DHT22;3007;50.770;0.250;2024-01-16T01:39:10;-1.50;99.90
5962;DHT22;3007;50.770;0.250;2024-01-16T01:41:37;-1.50;99.90
5962;DHT22;3007;50.770;0.250;2024-01-16T01:44:05;-1.50;99.90
5962;DHT22;3007;50.770;0.250;2024-01-16T01:46:33;-1.50;99.90
5962;DHT22;3007;50.770;0.250;2024-01-16T01:49:00;-1.50;99.90
5962;DHT22;3007;50.770;0.250;2024-01-16T01:51:28;-1.60;99.90
5962;DHT22;3007;50.770;0.250;2024-01-16T01:53:55;-1.60;99.90
5962;DHT22;3007;50.770;0.250;2024-01-16T01:56:25;-1.60;99.90
5962;DHT22;3007;50.770;0.250;2024-01-16T01:58:54;-1.70;99.90
5962;DHT22;3007;50.770;0.250;2024-01-16T02:01:23;-1.70;99.90
5962;DHT22;3007;50.770;0.250;2024-01-16T02:03:52;-1.80;99.90
5962;DHT22;3007;50.770;0.250;2024-01-16T02:06:22;-1.80;99.90
5962;DHT22;3007;50.770;0.250;2024-01-16T02:08:49;-1.80;99.90
5962;DHT22;3007;50.770;0.250;2024-01-16T02:11:17;-1.90;99.90
5962;DHT22;3007;50.770;0.250;2024-01-16T02:13:45;-1.90;99.90
5962;DHT22;3007;50.770;0.250;2024-01-16T02:16:19;-1.90;99.90
5962;DHT22;3007;50.770;0.250;2024-01-16T02:18:46;-2.00;99.90
5962;DHT22;3007;50.770;0.250;2024-01-16T02:21:17;-2.00;99.90
5962;DHT22;3007;50.770;0.250;2024-01-16T02:23:46;-2.00;99.90
5962;DHT22;3007;50.770;0.250;2024-01-16T02:26:17;-2.10;99.90
5962;DHT22;3007;50.770;0.250;2024-01-16T02:28:44;-2.10;99.90
5962;DHT22;3007;50.770;0.250;2024-01-16T02:31:10;-2.10;99.90
5962;DHT22;3007;50.770;0.250;2024-01-16T02:33:38;-2.10;99.90
5962;DHT22;3007;50.770;0.250;2024-01-16T02:36:05;-2.10;99.90
5962;DHT22;3007;50.770;0.250;2024-01-16T02:38:32;-2.10;99.90
5962;DHT22;3007;50.770;0.250;2024-01-16T02:41:00;-2.10;99.90
5962;DHT22;3007;50.770;0.250;2024-01-16T02:43:27;-2.20;99.90
5962;DHT22;3007;50.770;0.250;2024-01-16T02:45:53;-2.20;99.90
5962;DHT22;3007;50.770;0.250;2024-01-16T02:48:20;-2.30;99.90
5962;DHT22;3007;50.770;0.250;2024-01-16T02:50:47;-2.30;99.90
5962;DHT22;3007;50.770;0.250;2024-01-16T02:53:14;-2.30;99.90
5962;DHT22;3007;50.770;0.250;2024-01-16T02:55:41;-2.40;99.90
5962;DHT22;3007;50.770;0.250;2024-01-16T02:58:09;-2.40;99.90
5962;DHT22;3007;50.770;0.250;2024-01-16T03:00:36;-2.40;99.90
5962;DHT22;3007;50.770;0.250;2024-01-16T03:03:03;-2.50;99.90
5962;DHT22;3007;50.770;0.250;2024-01-16T03:05:30;-2.50;99.90
5962;DHT22;3007;50.770;0.250;2024-01-16T03:07:59;-2.50;99.90
5962;DHT22;3007;50.770;0.250;2024-01-16T03:10:26;-2.60;99.90
5962;DHT22;3007;50.770;0.250;2024-01-16T03:12:53;-2.60;99.90
5962;DHT22;3007;50.770;0.250;2024-01-16T03:15:21;-2.70;99.90
5962;DHT22;3007;50.770;0.250;2024-01-16T03:17:48;-2.70;99.90
5962;DHT22;3007;50.770;0.250;2024-01-16T03:20:16;-2.70;99.90
5962;DHT22;3007;50.770;0.250;2024-01-16T03:22:43;-2.70;99.90
5962;DHT22;3007;50.770;0.250;2024-01-16T03:25:11;-2.70;99.90
5962;DHT22;3007;50.770;0.250;2024-01-16T03:27:38;-2.70;99.90
5962;DHT22;3007;50.770;0.250;2024-01-16T03:30:06;-2.70;99.90
5962;DHT22;3007;50.770;0.250;2024-01-16T03:32:35;-2.70;99.90
5962;DHT22;3007;50.770;0.250;2024-01-16T03:35:02;-2.70;99.90
5962;DHT22;3007;50.770;0.250;2024-01-16T03:37:28;-2.60;99.90
5962;DHT22;3007;50.770;0.250;2024-01-16T03:39:55;-2.60;99.90
5962;DHT22;3007;50.770;0.250;2024-01-16T03:42:22;-2.60;99.90
5962;DHT22;3007;50.770;0.250;2024-01-16T03:44:49;-2.50;99.90
5962;DHT22;3007;50.770;0.250;2024-01-16T03:47:16;-2.50;99.90
5962;DHT22;3007;50.770;0.250;2024-01-16T03:49:45;-2.50;99.90
5962;DHT22;3007;50.770;0.250;2024-01-16T03:52:12;-2.50;99.90
5962;DHT22;3007;50.770;0.250;2024-01-16T03:54:39;-2.50;99.90
5962;DHT22;3007;50.770;0.250;2024-01-16T03:57:05;-2.40;99.90
5962;DHT22;3007;50.770;0.250;2024-01-16T03:59:32;-2.40;99.90
5962;DHT22;3007;50.770;0.250;2024-01-16T04:02:00;-2.30;99.90
5962;DHT22;3007;50.770;0.250;2024-01-16T04:04:28;-2.30;99.90
5962;DHT22;3007;50.770;0.250;2024-01-16T04:06:57;-2.30;99.90
5962;DHT22;3007;50.770;0.250;2024-01-16T04:09:23;-2.20;99.90
5962;DHT22;3007;50.770;0.250;2024-01-16T04:11:50;-2.20;99.90
5962;DHT22;3007;50.770;0.250;2024-01-16T04:14:17;-2.20;99.90
5962;DHT22;3007;50.770;0.250;2024-01-16T04:16:44;-2.20;99.90
5962;DHT22;3007;50.770;0.250;2024-01-16T04:19:11;-2.20;99.90
5962;DHT22;3007;50.770;0.250;2024-01-16T04:21:38;-2.20;99.90
5962;DHT22;3007;50.770;0.250;2024-01-16T04:24:06;-2.20;99.90
5962;DHT22;3007;50.770;0.250;2024-01-16T04:26:35;-2.20;99.90
5962;DHT22;3007;50.770;0.250;2024-01-16T04:29:03;-2.20;99.90
5962;DHT22;3007;50.770;0.250;2024-01-16T04:31:30;-2.20;99.90
5962;DHT22;3007;50.770;0.250;2024-01-16T04:33:58;-2.20;99.90
5962;DHT22;3007;50.770;0.250;2024-01-16T04:36:25;-2.20;99.90
5962;DHT22;3007;50.770;0.250;2024-01-16T04:38:52;-2.20;99.90
5962;DHT22;3007;50.770;0.250;2024-01-16T04:41:20;-2.20;99.90
5962;DHT22;3007;50.770;0.250;2024-01-16T04:43:47;-2.10;99.90
5962;DHT22;3007;50.770;0.250;2024-01-16T04:46:14;-2.10;99.90
5962;DHT22;3007;50.770;0.250;2024-01-16T04:48:41;-2.10;99.90
5962;DHT22;3007;50.770;0.250;2024-01-16T04:51:08;-2.00;99.90
5962;DHT22;3007;50.770;0.250;2024-01-16T04:53:35;-2.00;99.90
5962;DHT22;3007;50.770;0.250;2024-01-16T04:56:02;-2.00;99.90
5962;DHT22;3007;50.770;0.250;2024-01-16T04:58:30;-2.00;99.90
5962;DHT22;3007;50.770;0.250;2024-01-16T05:00:57;-2.00;99.90
5962;DHT22;3007;50.770;0.250;2024-01-16T05:03:24;-2.10;99.90
5962;DHT22;3007;50.770;0.250;2024-01-16T05:05:51;-2.10;99.90
5962;DHT22;3007;50.770;0.250;2024-01-16T05:08:18;-2.10;99.90
5962;DHT22;3007;50.770;0.250;2024-01-16T05:10:44;-2.10;99.90
5962;DHT22;3007;50.770;0.250;2024-01-16T05:13:11;-2.10;99.90
5962;DHT22;3007;50.770;0.250;2024-01-16T05:15:40;-2.10;99.90
5962;DHT22;3007;50.770;0.250;2024-01-16T05:18:07;-2.10;99.90
5962;DHT22;3007;50.770;0.250;2024-01-16T05:20:35;-2.10;99.90
5962;DHT22;3007;50.770;0.250;2024-01-16T05:23:02;-2.10;99.90
5962;DHT22;3007;50.770;0.250;2024-01-16T05:25:29;-2.20;99.90
5962;DHT22;3007;50.770;0.250;2024-01-16T05:27:56;-2.20;99.90
5962;DHT22;3007;50.770;0.250;2024-01-16T05:30:23;-2.20;99.90
5962;DHT22;3007;50.770;0.250;2024-01-16T05:32:51;-2.20;99.90
5962;DHT22;3007;50.770;0.250;2024-01-16T05:35:18;-2.30;99.90
5962;DHT22;3007;50.770;0.250;2024-01-16T05:37:45;-2.30;99.90
5962;DHT22;3007;50.770;0.250;2024-01-16T05:40:12;-2.30;99.90
5962;DHT22;3007;50.770;0.250;2024-01-16T05:42:38;-2.30;99.90
5962;DHT22;3007;50.770;0.250;2024-01-16T05:45:06;-2.30;99.90
5962;DHT22;3007;50.770;0.250;2024-01-16T05:47:33;-2.30;99.90
5962;DHT22;3007;50.770;0.250;2024-01-16T05:50:02;-2.20;99.90
5962;DHT22;3007;50.770;0.250;2024-01-16T05:52:29;-2.30;99.90
5962;DHT22;3007;50.770;0.250;2024-01-16T05:54:56;-2.20;99.90
5962;DHT22;3007;50.770;0.250;2024-01-16T05:57:25;-2.20;99.90
5962;DHT22;3007;50.770;0.250;2024-01-16T05:59:52;-2.20;99.90
5962;DHT22;3007;50.770;0.250;2024-01-16T06:02:19;-2.30;99.90
5962;DHT22;3007;50.770;0.250;2024-01-16T06:04:46;-2.40;99.90
5962;DHT22;3007;50.770;0.250;2024-01-16T06:07:14;-2.40;99.90
5962;DHT22;3007;50.770;0.250;2024-01-16T06:09:41;-2.40;99.90
5962;DHT22;3007;50.770;0.250;2024-01-16T06:12:08;-2.40;99.90
5962;DHT22;3007;50.770;0.250;2024-01-16T06:14:35;-2.50;99.90
5962;DHT22;3007;50.770;0.250;2024-01-16T06:17:02;-2.50;99.90
5962;DHT22;3007;50.770;0.250;2024-01-16T06:19:31;-2.50;99.90
5962;DHT22;3007;50.770;0.250;2024-01-16T06:21:58;-2.50;99.90
5962;DHT22;3007;50.770;0.250;2024-01-16T06:24:26;-2.50;99.90
5962;DHT22;3007;50.770;0.250;2024-01-16T06:26:54;-2.50;99.90
5962;DHT22;3007;50.770;0.250;2024-01-16T06:29:21;-2.50;99.90
5962;DHT22;3007;50.770;0.250;2024-01-16T06:31:48;-2.60;99.90
5962;DHT22;3007;50.770;0.250;2024-01-16T06:34:15;-2.60;99.90
5962;DHT22;3007;50.770;0.250;2024-01-16T06:36:42;-2.60;99.90
5962;DHT22;3007;50.770;0.250;2024-01-16T06:39:09;-2.60;99.90
5962;DHT22;3007;50.770;0.250;2024-01-16T06:41:41;-2.60;99.90
5962;DHT22;3007;50.770;0.250;2024-01-16T06:44:08;-2.60;99.90
5962;DHT22;3007;50.770;0.250;2024-01-16T06:46:35;-2.60;99.90
5962;DHT22;3007;50.770;0.250;2024-01-16T06:49:01;-2.70;99.90
5962;DHT22;3007;50.770;0.250;2024-01-16T06:51:28;-2.70;99.90
5962;DHT22;3007;50.770;0.250;2024-01-16T06:53:55;-2.70;99.90
5962;DHT22;3007;50.770;0.250;2024-01-16T06:56:22;-2.70;99.90
5962;DHT22;3007;50.770;0.250;2024-01-16T06:58:51;-2.70;99.90
5962;DHT22;3007;50.770;0.250;2024-01-16T07:01:18;-2.70;99.90
5962;DHT22;3007;50.770;0.250;2024-01-16T07:03:45;-2.70;99.90
5962;DHT22;3007;50.770;0.250;2024-01-16T07:06:12;-2.70;99.90
5962;DHT22;3007;50.770;0.250;2024-01-16T07:08:39;-2.60;99.90
5962;DHT22;3007;50.770;0.250;2024-01-16T07:11:06;-2.60;99.90
5962;DHT22;3007;50.770;0.250;2024-01-16T07:13:34;-2.70;99.90
5962;DHT22;3007;50.770;0.250;2024-01-16T07:16:02;-2.70;99.90
5962;DHT22;3007;50.770;0.250;2024-01-16T07:18:29;-2.70;99.90
5962;DHT22;3007;50.770;0.250;2024-01-16T07:20:56;-2.70;99.90
5962;DHT22;3007;50.770;0.250;2024-01-16T07:23:23;-2.70;99.90
5962;DHT22;3007;50.770;0.250;2024-01-16T07:25:50;-2.70;99.90
5962;DHT22;3007;50.770;0.250;2024-01-16T07:28:17;-2.70;99.90
5962;DHT22;3007;50.770;0.250;2024-01-16T07:30:45;-2.60;99.90
5962;DHT22;3007;50.770;0.250;2024-01-16T07:33:15;-2.60;99.90
5962;DHT22;3007;50.770;0.250;2024-01-16T07:35:42;-2.60;99.90
5962;DHT22;3007;50.770;0.250;2024-01-16T07:38:13;-2.60;99.90
5962;DHT22;3007;50.770;0.250;2024-01-16T07:40:52;-2.70;99.90
5962;DHT22;3007;50.770;0.250;2024-01-16T07:43:19;-2.70;99.90
5962;DHT22;3007;50.770;0.250;2024-01-16T07:45:46;-2.80;99.90
5962;DHT22;3007;50.770;0.250;2024-01-16T07:48:17;-1.70;99.90
5962;DHT22;3007;50.770;0.250;2024-01-16T07:50:44;-2.80;99.90
5962;DHT22;3007;50.770;0.250;2024-01-16T07:53:15;-2.70;99.90
5962;DHT22;3007;50.770;0.250;2024-01-16T07:55:43;-2.70;99.90
5962;DHT22;3007;50.770;0.250;2024-01-16T07:58:11;-2.70;99.90
5962;DHT22;3007;50.770;0.250;2024-01-16T08:00:38;-2.70;99.90
5962;DHT22;3007;50.770;0.250;2024-01-16T08:03:08;-1.90;99.90
5962;DHT22;3007;50.770;0.250;2024-01-16T08:05:39;-2.70;99.90
5962;DHT22;3007;50.770;0.250;2024-01-16T08:08:10;-2.70;99.90
5962;DHT22;3007;50.770;0.250;2024-01-16T08:10:44;-2.70;99.90
5962;DHT22;3007;50.770;0.250;2024-01-16T08:13:14;-2.70;99.90
5962;DHT22;3007;50.770;0.250;2024-01-16T08:15:41;-2.70;99.90
5962;DHT22;3007;50.770;0.250;2024-01-16T08:18:10;-2.70;99.90
5962;DHT22;3007;50.770;0.250;2024-01-16T08:20:42;-2.60;99.90
5962;DHT22;3007;50.770;0.250;2024-01-16T08:23:10;-2.60;99.90
5962;DHT22;3007;50.770;0.250;2024-01-16T08:25:38;-2.60;99.90
5962;DHT22;3007;50.770;0.250;2024-01-16T08:28:12;-2.50;99.90
5962;DHT22;3007;50.770;0.250;2024-01-16T08:30:40;-2.50;99.90
5962;DHT22;3007;50.770;0.250;2024-01-16T08:33:07;-2.50;99.90
5962;DHT22;3007;50.770;0.250;2024-01-16T08:35:34;-2.50;99.90
5962;DHT22;3007;50.770;0.250;2024-01-16T08:38:03;-2.50;99.90
5962;DHT22;3007;50.770;0.250;2024-01-16T08:40:30;-2.50;99.90
5962;DHT22;3007;50.770;0.250;2024-01-16T08:42:57;-2.50;99.90
5962;DHT22;3007;50.770;0.250;2024-01-16T08:45:23;-2.40;99.90
5962;DHT22;3007;50.770;0.250;2024-01-16T08:47:51;-2.40;99.90
5962;DHT22;3007;50.770;0.250;2024-01-16T08:50:18;-2.40;99.90
5962;DHT22;3007;50.770;0.250;2024-01-16T08:52:45;-2.30;99.90
5962;DHT22;3007;50.770;0.250;2024-01-16T08:55:13;-2.30;99.90
5962;DHT22;3007;50.770;0.250;2024-01-16T08:57:40;-2.30;99.90
5962;DHT22;3007;50.770;0.250;2024-01-16T09:00:08;-2.30;99.90
5962;DHT22;3007;50.770;0.250;2024-01-16T09:02:35;-2.20;99.90
5962;DHT22;3007;50.770;0.250;2024-01-16T09:05:02;-2.10;99.90
5962;DHT22;3007;50.770;0.250;2024-01-16T09:07:30;-2.00;99.90
5962;DHT22;3007;50.770;0.250;2024-01-16T09:09:57;-2.00;99.90
5962;DHT22;3007;50.770;0.250;2024-01-16T09:12:25;-1.90;99.90
5962;DHT22;3007;50.770;0.250;2024-01-16T09:14:53;-0.80;99.90
5962;DHT22;3007;50.770;0.250;2024-01-16T09:17:21;-1.90;99.90
5962;DHT22;3007;50.770;0.250;2024-01-16T09:19:47;-1.90;99.90
5962;DHT22;3007;50.770;0.250;2024-01-16T09:22:14;-1.80;99.90
5962;DHT22;3007;50.770;0.250;2024-01-16T09:24:41;-1.80;99.90
5962;DHT22;3007;50.770;0.250;2024-01-16T09:27:08;-1.00;99.90
5962;DHT22;3007;50.770;0.250;2024-01-16T09:29:37;-1.80;99.90
5962;DHT22;3007;50.770;0.250;2024-01-16T09:32:04;-1.70;99.90
5962;DHT22;3007;50.770;0.250;2024-01-16T09:34:31;-1.60;99.90
5962;DHT22;3007;50.770;0.250;2024-01-16T09:36:58;-1.60;99.90
5962;DHT22;3007;50.770;0.250;2024-01-16T09:39:27;-1.50;99.90
5962;DHT22;3007;50.770;0.250;2024-01-16T09:41:59;-1.50;99.90
5962;DHT22;3007;50.770;0.250;2024-01-16T09:44:27;-1.50;99.90
5962;DHT22;3007;50.770;0.250;2024-01-16T09:46:55;-1.40;99.90
5962;DHT22;3007;50.770;0.250;2024-01-16T09:49:24;-1.30;99.90
5962;DHT22;3007;50.770;0.250;2024-01-16T09:51:51;-1.20;99.90
5962;DHT22;3007;50.770;0.250;2024-01-16T09:54:18;-1.20;99.90
5962;DHT22;3007;50.770;0.250;2024-01-16T09:56:51;-1.20;99.90
5962;DHT22;3007;50.770;0.250;2024-01-16T09:59:20;-1.20;99.90
5962;DHT22;3007;50.770;0.250;2024-01-16T10:01:49;-1.10;99.90
5962;DHT22;3007;50.770;0.250;2024-01-16T10:04:19;-1.10;99.90
5962;DHT22;3007;50.770;0.250;2024-01-16T10:06:46;-1.00;99.90
5962;DHT22;3007;50.770;0.250;2024-01-16T10:09:14;-1.00;99.90
5962;DHT22;3007;50.770;0.250;2024-01-16T10:11:42;-0.90;99.90
5962;DHT22;3007;50.770;0.250;2024-01-16T10:14:09;-0.80;99.90
5962;DHT22;3007;50.770;0.250;2024-01-16T10:16:57;-0.80;99.90
5962;DHT22;3007;50.770;0.250;2024-01-16T10:19:27;-0.80;99.90
5962;DHT22;3007;50.770;0.250;2024-01-16T10:22:01;-0.70;99.90
5962;DHT22;3007;50.770;0.250;2024-01-16T10:24:28;-0.70;99.90
5962;DHT22;3007;50.770;0.250;2024-01-16T10:26:58;-0.60;99.90
5962;DHT22;3007;50.770;0.250;2024-01-16T10:29:26;-0.50;99.90
5962;DHT22;3007;50.770;0.250;2024-01-16T10:31:53;-0.40;99.90
5962;DHT22;3007;50.770;0.250;2024-01-16T10:34:20;-0.40;99.90
5962;DHT22;3007;50.770;0.250;2024-01-16T10:36:50;-0.30;99.90
5962;DHT22;3007;50.770;0.250;2024-01-16T10:39:17;0.30;99.90
5962;DHT22;3007;50.770;0.250;2024-01-16T10:41:54;-0.20;99.90
5962;DHT22;3007;50.770;0.250;2024-01-16T10:44:21;-0.10;99.90
5962;DHT22;3007;50.770;0.250;2024-01-16T10:46:48;-0.10;99.90
5962;DHT22;3007;50.770;0.250;2024-01-16T10:49:15;-0.10;99.90
5962;DHT22;3007;50.770;0.250;2024-01-16T10:51:43;0.00;99.90
5962;DHT22;3007;50.770;0.250;2024-01-16T10:54:12;0.00;99.90
5962;DHT22;3007;50.770;0.250;2024-01-16T10:56:44;0.10;99.90
5962;DHT22;3007;50.770;0.250;2024-01-16T10:59:17;0.10;99.90
5962;DHT22;3007;50.770;0.250;2024-01-16T11:01:49;0.20;99.90
5962;DHT22;3007;50.770;0.250;2024-01-16T11:04:18;0.20;99.90
5962;DHT22;3007;50.770;0.250;2024-01-16T11:06:47;0.20;99.90
5962;DHT22;3007;50.770;0.250;2024-01-16T11:09:16;0.30;99.90
5962;DHT22;3007;50.770;0.250;2024-01-16T11:11:44;1.50;99.90
5962;DHT22;3007;50.770;0.250;2024-01-16T11:14:12;0.40;99.90
5962;DHT22;3007;50.770;0.250;2024-01-16T11:16:41;0.50;99.90
5962;DHT22;3007;50.770;0.250;2024-01-16T11:19:09;0.50;99.90
5962;DHT22;3007;50.770;0.250;2024-01-16T11:21:37;0.50;99.90
5962;DHT22;3007;50.770;0.250;2024-01-16T11:24:05;0.60;99.90
5962;DHT22;3007;50.770;0.250;2024-01-16T11:26:37;0.60;99.90
5962;DHT22;3007;50.770;0.250;2024-01-16T11:29:36;0.60;99.90
5962;DHT22;3007;50.770;0.250;2024-01-16T11:32:03;0.70;99.90
5962;DHT22;3007;50.770;0.250;2024-01-16T11:34:52;0.80;99.90
5962;DHT22;3007;50.770;0.250;2024-01-16T11:37:26;0.80;99.90
5962;DHT22;3007;50.770;0.250;2024-01-16T11:40:20;0.90;99.90
5962;DHT22;3007;50.770;0.250;2024-01-16T11:42:50;0.90;99.90
5962;DHT22;3007;50.770;0.250;2024-01-16T11:45:48;0.90;99.90
5962;DHT22;3007;50.770;0.250;2024-01-16T11:48:16;0.90;99.90
5962;DHT22;3007;50.770;0.250;2024-01-16T11:50:44;0.90;99.90
5962;DHT22;3007;50.770;0.250;2024-01-16T11:53:11;0.90;99.90
5962;DHT22;3007;50.770;0.250;2024-01-16T11:56:00;1.00;99.90
5962;DHT22;3007;50.770;0.250;2024-01-16T11:58:45;1.00;99.90
5962;DHT22;3007;50.770;0.250;2024-01-16T12:01:14;1.00;99.90
5962;DHT22;3007;50.770;0.250;2024-01-16T12:03:42;1.00;99.90
5962;DHT22;3007;50.770;0.250;2024-01-16T12:06:09;1.00;99.90
5962;DHT22;3007;50.770;0.250;2024-01-16T12:08:36;1.10;99.90
5962;DHT22;3007;50.770;0.250;2024-01-16T12:11:04;1.10;99.90
5962;DHT22;3007;50.770;0.250;2024-01-16T12:13:30;1.10;99.90
5962;DHT22;3007;50.770;0.250;2024-01-16T12:16:04;1.10;99.90
5962;DHT22;3007;50.770;0.250;2024-01-16T12:18:30;1.10;99.90
5962;DHT22;3007;50.770;0.250;2024-01-16T12:20:57;1.10;99.90
5962;DHT22;3007;50.770;0.250;2024-01-16T12:23:34;1.20;99.90
5962;DHT22;3007;50.770;0.250;2024-01-16T12:26:00;1.20;99.90
5962;DHT22;3007;50.770;0.250;2024-01-16T12:28:29;1.10;99.90
5962;DHT22;3007;50.770;0.250;2024-01-16T12:30:56;1.10;99.90
5962;DHT22;3007;50.770;0.250;2024-01-16T12:33:24;1.20;99.90
5962;DHT22;3007;50.770;0.250;2024-01-16T12:36:00;1.20;99.90
5962;DHT22;3007;50.770;0.250;2024-01-16T12:38:30;1.20;99.90
5962;DHT22;3007;50.770;0.250;2024-01-16T12:40:58;1.20;99.90
5962;DHT22;3007;50.770;0.250;2024-01-16T12:43:29;1.20;99.90
5962;DHT22;3007;50.770;0.250;2024-01-16T12:45:56;1.30;99.90
5962;DHT22;3007;50.770;0.250;2024-01-16T12:48:26;1.30;99.90
5962;DHT22;3007;50.770;0.250;2024-01-16T12:50:59;1.30;99.90
5962;DHT22;3007;50.770;0.250;2024-01-16T12:53:26;1.30;99.90
5962;DHT22;3007;50.770;0.250;2024-01-16T12:55:58;1.30;99.90
5962;DHT22;3007;50.770;0.250;2024-01-16T12:58:31;1.30;99.90
5962;DHT22;3007;50.770;0.250;2024-01-16T13:01:23;1.30;99.90
5962;DHT22;3007;50.770;0.250;2024-01-16T13:03:54;1.30;99.90
5962;DHT22;3007;50.770;0.250;2024-01-16T13:06:25;1.30;99.90
5962;DHT22;3007;50.770;0.250;2024-01-16T13:09:05;1.30;99.90
5962;DHT22;3007;50.770;0.250;2024-01-16T13:11:45;1.30;99.90
5962;DHT22;3007;50.770;0.250;2024-01-16T13:14:14;1.30;99.90
5962;DHT22;3007;50.770;0.250;2024-01-16T13:16:41;1.30;99.90
5962;DHT22;3007;50.770;0.250;2024-01-16T13:19:09;1.40;99.90
5962;DHT22;3007;50.770;0.250;2024-01-16T13:21:36;1.30;99.90
5962;DHT22;3007;50.770;0.250;2024-01-16T13:24:03;1.30;99.90
5962;DHT22;3007;50.770;0.250;2024-01-16T13:26:30;1.30;99.90
5962;DHT22;3007;50.770;0.250;2024-01-16T13:29:00;1.30;99.90
5962;DHT22;3007;50.770;0.250;2024-01-16T13:31:27;1.30;99.90
5962;DHT22;3007;50.770;0.250;2024-01-16T13:33:54;1.30;99.90
5962;DHT22;3007;50.770;0.250;2024-01-16T13:36:23;1.30;99.90
5962;DHT22;3007;50.770;0.250;2024-01-16T13:38:53;1.30;99.90
5962;DHT22;3007;50.770;0.250;2024-01-16T13:41:20;1.30;99.90
5962;DHT22;3007;50.770;0.250;2024-01-16T13:43:46;1.30;99.90
5962;DHT22;3007;50.770;0.250;2024-01-16T13:46:14;1.40;99.90
5962;DHT22;3007;50.770;0.250;2024-01-16T13:48:45;1.40;99.90
5962;DHT22;3007;50.770;0.250;2024-01-16T13:51:11;1.40;99.90
5962;DHT22;3007;50.770;0.250;2024-01-16T13:53:40;1.40;99.90
5962;DHT22;3007;50.770;0.250;2024-01-16T13:56:07;1.40;99.90
5962;DHT22;3007;50.770;0.250;2024-01-16T13:58:33;1.40;99.90
5962;DHT22;3007;50.770;0.250;2024-01-16T14:01:00;1.40;99.90
5962;DHT22;3007;50.770;0.250;2024-01-16T14:03:29;1.40;99.90
5962;DHT22;3007;50.770;0.250;2024-01-16T14:05:56;1.40;99.90
5962;DHT22;3007;50.770;0.250;2024-01-16T14:08:23;1.40;99.90
5962;DHT22;3007;50.770;0.250;2024-01-16T14:10:51;1.30;99.90
5962;DHT22;3007;50.770;0.250;2024-01-16T14:13:18;1.30;99.90
5962;DHT22;3007;50.770;0.250;2024-01-16T14:15:44;1.20;99.90
5962;DHT22;3007;50.770;0.250;2024-01-16T14:18:11;1.20;99.90
5962;DHT22;3007;50.770;0.250;2024-01-16T14:20:38;1.10;99.90
5962;DHT22;3007;50.770;0.250;2024-01-16T14:23:05;1.10;99.90
5962;DHT22;3007;50.770;0.250;2024-01-16T14:25:32;1.10;99.90
5962;DHT22;3007;50.770;0.250;2024-01-16T14:28:02;1.10;99.90
5962;DHT22;3007;50.770;0.250;2024-01-16T14:30:31;1.10;99.90
5962;DHT22;3007;50.770;0.250;2024-01-16T14:32:59;1.10;99.90
5962;DHT22;3007;50.770;0.250;2024-01-16T14:35:26;1.10;99.90
5962;DHT22;3007;50.770;0.250;2024-01-16T14:37:53;1.00;99.90
5962;DHT22;3007;50.770;0.250;2024-01-16T14:40:21;1.00;99.90
5962;DHT22;3007;50.770;0.250;2024-01-16T14:42:51;0.90;99.90
5962;DHT22;3007;50.770;0.250;2024-01-16T14:45:20;0.80;99.90
5962;DHT22;3007;50.770;0.250;2024-01-16T14:47:50;0.70;99.90
5962;DHT22;3007;50.770;0.250;2024-01-16T14:50:19;0.70;99.90
5962;DHT22;3007;50.770;0.250;2024-01-16T14:52:48;0.70;99.90
5962;DHT22;3007;50.770;0.250;2024-01-16T14:55:16;0.60;99.90
5962;DHT22;3007;50.770;0.250;2024-01-16T14:57:43;0.50;99.90
5962;DHT22;3007;50.770;0.250;2024-01-16T15:00:13;0.50;99.90
5962;DHT22;3007;50.770;0.250;2024-01-16T15:02:42;0.50;99.90
5962;DHT22;3007;50.770;0.250;2024-01-16T15:05:09;0.40;99.90
5962;DHT22;3007;50.770;0.250;2024-01-16T15:07:38;0.40;99.90
5962;DHT22;3007;50.770;0.250;2024-01-16T15:10:07;0.40;99.90
5962;DHT22;3007;50.770;0.250;2024-01-16T15:12:37;0.40;99.90
5962;DHT22;3007;50.770;0.250;2024-01-16T15:15:05;0.30;99.90
5962;DHT22;3007;50.770;0.250;2024-01-16T15:17:33;0.30;99.90
5962;DHT22;3007;50.770;0.250;2024-01-16T15:20:01;0.20;99.90
5962;DHT22;3007;50.770;0.250;2024-01-16T15:22:29;0.20;99.90
5962;DHT22;3007;50.770;0.250;2024-01-16T15:24:57;0.20;99.90
5962;DHT22;3007;50.770;0.250;2024-01-16T15:27:24;0.10;99.90
5962;DHT22;3007;50.770;0.250;2024-01-16T15:29:51;0.10;99.90
5962;DHT22;3007;50.770;0.250;2024-01-16T15:32:20;0.00;99.90
5962;DHT22;3007;50.770;0.250;2024-01-16T15:34:47;0.00;99.90
5962;DHT22;3007;50.770;0.250;2024-01-16T15:37:16;0.00;99.90
5962;DHT22;3007;50.770;0.250;2024-01-16T15:39:42;0.00;99.90
5962;DHT22;3007;50.770;0.250;2024-01-16T15:42:11;-0.10;99.90
5962;DHT22;3007;50.770;0.250;2024-01-16T15:44:38;-0.10;99.90
5962;DHT22;3007;50.770;0.250;2024-01-16T15:47:05;-0.10;99.90
5962;DHT22;3007;50.770;0.250;2024-01-16T15:49:32;-0.20;99.90
5962;DHT22;3007;50.770;0.250;2024-01-16T15:52:01;-0.20;99.90
5962;DHT22;3007;50.770;0.250;2024-01-16T15:54:29;-0.20;99.90
5962;DHT22;3007;50.770;0.250;2024-01-16T15:56:57;-0.30;99.90
5962;DHT22;3007;50.770;0.250;2024-01-16T15:59:24;-0.30;99.90
5962;DHT22;3007;50.770;0.250;2024-01-16T16:01:52;-0.30;99.90
5962;DHT22;3007;50.770;0.250;2024-01-16T16:04:18;-0.40;99.90
5962;DHT22;3007;50.770;0.250;2024-01-16T16:06:45;-0.40;99.90
5962;DHT22;3007;50.770;0.250;2024-01-16T16:09:12;-0.40;99.90
5962;DHT22;3007;50.770;0.250;2024-01-16T16:11:41;-0.40;99.90
5962;DHT22;3007;50.770;0.250;2024-01-16T16:14:10;-0.40;99.90